Airfield :
LOGIN :

Register | Disclaimer

   EN    FR    IT 

 










Legend :    VFR   Marginal VFR   IFR   Intensive IFR   Very Intensive IFR
Visi :
Ceiling :
>= 8 km
>= 3000ft
5 to 8 km
1000 to 3000 ft
1500m to 5 km
500 to 1000 ft
800 to 1500m
200 to 500 ft
< 800m
< 200 ft
Symbols :   Thunderstorms  Fog  Heavy snow  Heavy precipitations  Wind > 20 kt
SIGMETs :     Misc.  Thunderstorms  Icing  Turbulence  Mountain Waves  Volcanic Ashes






- Airport Elevation : 844 ft
- IATA code : OSR


LKMT - Ostrava-Mosnov

CURRENT METAR :
  • 030630Z 23005KT CAVOK 17/15 Q1016 NOSIG

EXPIRED METARs :
  • 030600Z 25005KT CAVOK 16/14 Q1016 NOSIG
  • 030530Z 22006KT CAVOK 14/14 Q1016 NOSIG
  • 030500Z 23004KT CAVOK 13/13 Q1016 NOSIG
  • 030430Z 22003KT CAVOK 12/12 Q1016 NOSIG
  • 030400Z 22004KT 9999 FEW049 11/11 Q1016 NOSIG

TAF TAF LKMT
Valid from the 03 at 06:00 until the 04 at 12:00 UTC


030500Z 0306/0412 21008KT CAVOK
PROB30
TEMPO 0312/0316 8000 SHRA SCT040TCU
TEMPO 0322/0406 7000 SHRA BKN020TCU
PROB40
TEMPO 0322/0404 2500 TSRA BKN013CB



MET'MAP, your aeronautical weather chart ! - Copyright ORBIFLY December 2007 - Disclaimer

ORBIFLY MET'MAP TEAM :

Programming & Development : Alexandra Zaïnal
Concept & original design : Baudouin d'Aumeries
Assistance for programming : Marc-Olivier Méhu
Technical & hardware support : Manuel Goepfert

Contact : metmap@orbifly.com




SOURCES & CREDITS :

   NOAA